createdAt,value
2023-12-09T00:00:44.106Z,7.12
2023-12-09T00:03:11.098Z,7.15
2023-12-09T00:05:38.141Z,7.32
2023-12-09T00:08:05.555Z,7.21
2023-12-09T00:10:32.483Z,7.33
2023-12-09T00:12:59.389Z,7.19
2023-12-09T00:15:26.283Z,7.21
2023-12-09T00:17:53.204Z,7.33
2023-12-09T00:20:20.153Z,7.34
2023-12-09T00:22:47.022Z,7.37
2023-12-09T00:25:13.926Z,7.32
2023-12-09T00:27:40.850Z,7.15
2023-12-09T00:30:08.936Z,7.03
2023-12-09T00:32:36.128Z,6.96
2023-12-09T00:35:03.257Z,7.09
2023-12-09T00:37:30.409Z,7.19
2023-12-09T00:39:57.245Z,7.22
2023-12-09T00:42:26.537Z,7.26
2023-12-09T00:44:53.813Z,7.32
2023-12-09T00:47:20.674Z,7.31
2023-12-09T00:49:47.615Z,7.26
2023-12-09T00:52:14.521Z,7.35
2023-12-09T00:54:41.465Z,7.40
2023-12-09T00:57:08.475Z,7.45
2023-12-09T00:59:35.890Z,7.48
2023-12-09T01:02:02.843Z,7.28
2023-12-09T01:04:29.823Z,7.47
2023-12-09T01:06:57.944Z,7.46
2023-12-09T01:09:25.443Z,7.49
2023-12-09T01:11:54.634Z,7.50
2023-12-09T01:14:21.980Z,7.50
2023-12-09T01:16:48.876Z,7.50
2023-12-09T01:19:15.821Z,7.53
2023-12-09T01:21:43.700Z,7.46
2023-12-09T01:24:10.610Z,7.50
2023-12-09T01:26:37.606Z,7.50
2023-12-09T01:29:05.499Z,7.50
2023-12-09T01:31:32.603Z,7.44
2023-12-09T01:33:59.628Z,7.51
2023-12-09T01:36:26.678Z,7.48
2023-12-09T01:38:53.656Z,7.17
2023-12-09T01:41:21.051Z,7.32
2023-12-09T01:43:51.726Z,7.26
2023-12-09T01:46:20.651Z,7.31
2023-12-09T01:48:49.177Z,7.35
2023-12-09T01:51:18.725Z,7.10
2023-12-09T01:53:45.892Z,7.39
2023-12-09T01:56:15.650Z,7.40
2023-12-09T01:58:42.761Z,7.46
2023-12-09T02:01:10.044Z,7.24
2023-12-09T02:03:37.770Z,7.37
2023-12-09T02:06:04.982Z,7.17
2023-12-09T02:08:32.698Z,7.27
2023-12-09T02:11:40.467Z,7.37
2023-12-09T02:14:14.195Z,7.17
2023-12-09T02:16:53.612Z,7.26
2023-12-09T02:19:22.290Z,7.34
2023-12-09T02:22:10.550Z,7.40
2023-12-09T02:24:37.753Z,7.33
2023-12-09T02:27:22.593Z,7.45
2023-12-09T02:30:09.315Z,7.44
2023-12-09T02:32:38.557Z,7.47
2023-12-09T02:35:08.887Z,7.43
2023-12-09T02:37:36.630Z,7.52
2023-12-09T02:40:04.682Z,7.53
2023-12-09T02:42:33.696Z,7.55
2023-12-09T02:45:00.918Z,7.57
2023-12-09T02:47:27.845Z,7.56
2023-12-09T02:49:55.362Z,7.55
2023-12-09T02:52:22.467Z,7.52
2023-12-09T02:54:49.401Z,7.56
2023-12-09T02:57:16.271Z,7.55
2023-12-09T02:59:43.250Z,7.49
2023-12-09T03:02:10.110Z,7.51
2023-12-09T03:04:36.961Z,7.54
2023-12-09T03:07:04.035Z,7.54
2023-12-09T03:09:30.941Z,7.55
2023-12-09T03:11:57.885Z,7.53
2023-12-09T03:14:24.873Z,7.53
2023-12-09T03:16:51.728Z,7.54
2023-12-09T03:19:18.682Z,7.55
2023-12-09T03:21:45.543Z,7.56
2023-12-09T03:24:12.449Z,7.48
2023-12-09T03:26:39.482Z,7.54
2023-12-09T03:29:06.337Z,7.56
2023-12-09T03:31:33.171Z,7.56
2023-12-09T03:34:00.270Z,7.50
2023-12-09T03:36:27.293Z,7.56
2023-12-09T03:38:54.327Z,7.54
2023-12-09T03:41:23.891Z,7.56
2023-12-09T03:43:52.207Z,7.39
2023-12-09T03:46:19.147Z,7.55
2023-12-09T03:48:46.462Z,7.57
2023-12-09T03:51:13.439Z,7.54
2023-12-09T03:53:42.945Z,7.56
2023-12-09T03:56:12.688Z,7.50
2023-12-09T03:58:40.525Z,7.52
2023-12-09T04:01:07.481Z,7.53
2023-12-09T04:03:34.482Z,7.49
2023-12-09T04:06:02.489Z,7.51
2023-12-09T04:08:30.029Z,7.52
2023-12-09T04:10:57.233Z,7.51
2023-12-09T04:13:24.093Z,7.52
2023-12-09T04:15:51.262Z,7.51
2023-12-09T04:18:18.604Z,7.54
2023-12-09T04:20:45.646Z,7.38
2023-12-09T04:23:12.471Z,7.46
2023-12-09T04:25:39.379Z,7.51
2023-12-09T04:28:06.503Z,7.55
2023-12-09T04:30:33.387Z,7.54
2023-12-09T04:33:00.739Z,7.54
2023-12-09T04:35:27.636Z,7.49
2023-12-09T04:37:54.499Z,7.47
2023-12-09T04:40:21.684Z,7.53
2023-12-09T04:42:48.748Z,7.52
2023-12-09T04:45:15.691Z,7.51
2023-12-09T04:47:42.715Z,7.49
2023-12-09T04:50:10.046Z,7.47
2023-12-09T04:52:37.232Z,7.43
2023-12-09T04:55:05.094Z,7.39
2023-12-09T04:57:32.735Z,7.27
2023-12-09T04:59:59.763Z,7.35
2023-12-09T05:02:27.029Z,7.37
2023-12-09T05:04:54.204Z,7.35
2023-12-09T05:07:21.154Z,7.34
2023-12-09T05:09:48.005Z,7.33
2023-12-09T05:12:15.471Z,7.30
2023-12-09T05:14:42.326Z,7.26
2023-12-09T05:17:09.176Z,7.18
2023-12-09T05:19:36.363Z,7.17
2023-12-09T05:22:03.365Z,7.20
2023-12-09T05:24:30.260Z,7.16
2023-12-09T05:26:58.817Z,7.16
2023-12-09T05:29:25.688Z,7.12
2023-12-09T05:31:53.780Z,7.16
2023-12-09T05:34:20.798Z,7.15
2023-12-09T05:36:47.695Z,7.12
2023-12-09T05:39:16.190Z,7.13
2023-12-09T05:41:43.394Z,7.12
2023-12-09T05:44:10.342Z,7.09
2023-12-09T05:46:37.607Z,7.06
2023-12-09T05:49:04.717Z,7.04
2023-12-09T05:51:31.754Z,7.05
2023-12-09T05:53:58.808Z,7.05
2023-12-09T05:56:26.260Z,7.03
2023-12-09T05:58:53.082Z,7.06
2023-12-09T06:01:20.116Z,7.05
2023-12-09T06:03:46.959Z,7.06
2023-12-09T06:06:13.906Z,7.07
2023-12-09T06:08:41.216Z,7.07
2023-12-09T06:11:08.076Z,7.05
2023-12-09T06:13:34.905Z,7.07
2023-12-09T06:16:01.726Z,7.03
2023-12-09T06:18:28.647Z,7.02
2023-12-09T06:20:55.606Z,7.04
2023-12-09T06:23:22.601Z,7.03
2023-12-09T06:25:49.573Z,7.04
2023-12-09T06:28:16.511Z,7.03
2023-12-09T06:30:43.392Z,7.03
2023-12-09T06:33:10.335Z,7.04
2023-12-09T06:35:37.454Z,7.01
2023-12-09T06:38:04.378Z,7.02
2023-12-09T06:40:31.182Z,6.99
2023-12-09T06:42:58.193Z,6.97
2023-12-09T06:45:25.095Z,7.00
2023-12-09T06:47:55.180Z,6.99
2023-12-09T06:50:22.945Z,6.99
2023-12-09T06:52:50.428Z,6.92
2023-12-09T06:55:17.315Z,6.97
2023-12-09T06:57:44.326Z,6.99
2023-12-09T07:00:13.855Z,7.00
2023-12-09T07:02:49.038Z,7.00
2023-12-09T07:05:23.905Z,6.93
2023-12-09T07:07:52.072Z,7.02
2023-12-09T07:10:19.306Z,6.95
2023-12-09T07:12:46.399Z,7.03
2023-12-09T07:15:13.710Z,7.03
2023-12-09T07:17:40.922Z,7.02
2023-12-09T07:20:08.629Z,7.01
2023-12-09T07:22:35.511Z,7.02
2023-12-09T07:25:02.353Z,6.88
2023-12-09T07:27:29.278Z,7.04
2023-12-09T07:29:56.133Z,7.03
2023-12-09T07:32:23.272Z,7.04
2023-12-09T07:34:50.325Z,7.02
2023-12-09T07:37:18.947Z,7.02
2023-12-09T07:39:45.863Z,7.01
2023-12-09T07:42:12.889Z,6.99
2023-12-09T07:44:39.728Z,7.00
2023-12-09T07:47:06.604Z,6.96
2023-12-09T07:49:33.589Z,7.00
2023-12-09T07:52:00.814Z,6.88
2023-12-09T07:54:28.543Z,7.04
2023-12-09T07:56:55.491Z,7.07
2023-12-09T07:59:22.346Z,7.08
2023-12-09T08:01:49.281Z,7.04
2023-12-09T08:04:16.340Z,7.07
2023-12-09T08:06:43.242Z,7.09
2023-12-09T08:09:10.822Z,7.08
2023-12-09T08:11:37.788Z,7.11
2023-12-09T08:14:04.651Z,7.12
2023-12-09T08:16:31.741Z,7.09
2023-12-09T08:18:58.767Z,7.15
2023-12-09T08:21:26.649Z,7.16
2023-12-09T08:23:53.610Z,7.16
2023-12-09T08:26:20.598Z,7.06
2023-12-09T08:28:47.554Z,7.18
2023-12-09T08:31:14.439Z,7.20
2023-12-09T08:33:42.165Z,7.21
2023-12-09T08:36:10.117Z,7.10
2023-12-09T08:38:37.092Z,7.06
2023-12-09T08:41:04.245Z,7.17
2023-12-09T08:43:31.184Z,7.19
2023-12-09T08:45:58.901Z,6.97
2023-12-09T08:48:25.956Z,7.05
2023-12-09T08:50:52.946Z,7.19
2023-12-09T08:53:19.885Z,7.15
2023-12-09T08:55:46.784Z,7.09
2023-12-09T08:58:13.624Z,7.16
2023-12-09T09:00:41.034Z,7.21
2023-12-09T09:03:08.262Z,7.12
2023-12-09T09:05:35.355Z,7.10
2023-12-09T09:08:02.297Z,7.13
2023-12-09T09:10:29.175Z,7.02
2023-12-09T09:12:56.161Z,7.05
2023-12-09T09:15:23.336Z,7.04
2023-12-09T09:17:51.711Z,6.96
2023-12-09T09:20:18.741Z,6.96
2023-12-09T09:22:47.773Z,7.09
2023-12-09T09:25:16.695Z,7.20
2023-12-09T09:27:43.829Z,7.26
2023-12-09T09:30:11.304Z,7.15
2023-12-09T09:32:38.216Z,7.10
2023-12-09T09:35:05.672Z,7.11
2023-12-09T09:37:32.637Z,7.15
2023-12-09T09:39:59.564Z,7.11
2023-12-09T09:42:43.896Z,7.01
2023-12-09T09:45:31.522Z,7.10
2023-12-09T09:48:08.130Z,7.06
2023-12-09T09:50:42.946Z,7.21
2023-12-09T09:53:14.247Z,7.32
2023-12-09T09:55:43.299Z,7.31
2023-12-09T09:58:10.284Z,7.30
2023-12-09T10:00:37.355Z,7.31
2023-12-09T10:03:04.730Z,7.18
2023-12-09T10:05:32.360Z,7.30
2023-12-09T10:08:00.424Z,7.32
2023-12-09T10:10:28.565Z,7.15
2023-12-09T10:12:55.425Z,7.14
2023-12-09T10:15:22.484Z,7.19
2023-12-09T10:17:49.488Z,7.17
2023-12-09T10:20:16.542Z,7.19
2023-12-09T10:22:43.504Z,7.14
2023-12-09T10:25:10.762Z,7.15
2023-12-09T10:27:41.420Z,7.14
2023-12-09T10:30:09.901Z,7.13
2023-12-09T10:32:37.230Z,7.12
2023-12-09T10:35:06.061Z,7.07
2023-12-09T10:37:33.291Z,7.10
2023-12-09T10:40:09.750Z,7.13
2023-12-09T10:42:40.143Z,7.18
2023-12-09T10:45:09.624Z,7.19
2023-12-09T10:47:36.988Z,7.19
2023-12-09T10:50:05.319Z,7.11
2023-12-09T10:52:33.698Z,7.21
2023-12-09T10:55:01.545Z,7.24
2023-12-09T10:57:30.794Z,7.32
2023-12-09T10:59:58.435Z,7.30
2023-12-09T11:02:27.941Z,7.13
2023-12-09T11:04:56.094Z,7.31
2023-12-09T11:07:24.359Z,7.30
2023-12-09T11:09:51.584Z,7.22
2023-12-09T11:12:29.463Z,7.35
2023-12-09T11:14:57.384Z,7.36
2023-12-09T11:17:38.127Z,7.28
2023-12-09T11:20:15.174Z,7.38
2023-12-09T11:22:44.768Z,7.41
2023-12-09T11:25:20.375Z,7.40
2023-12-09T11:27:52.038Z,7.44
2023-12-09T11:30:46.573Z,7.42
2023-12-09T11:33:14.861Z,7.47
2023-12-09T11:35:46.997Z,7.48
2023-12-09T11:38:15.261Z,7.41
2023-12-09T11:40:43.743Z,7.52
2023-12-09T11:43:11.498Z,7.56
2023-12-09T11:45:38.605Z,7.57
2023-12-09T11:48:06.669Z,7.60
2023-12-09T11:50:33.669Z,7.62
2023-12-09T11:53:01.083Z,7.63
2023-12-09T11:55:27.932Z,7.61
2023-12-09T11:57:54.899Z,7.64
2023-12-09T12:00:22.581Z,7.68
2023-12-09T12:02:50.141Z,7.75
2023-12-09T12:05:17.273Z,7.79
2023-12-09T12:07:44.242Z,7.47
2023-12-09T12:10:11.977Z,7.82
2023-12-09T12:12:39.922Z,7.89
2023-12-09T12:15:07.755Z,7.79
2023-12-09T12:17:40.134Z,7.74
2023-12-09T12:20:10.958Z,8.09
2023-12-09T12:22:37.880Z,8.17
2023-12-09T12:25:05.586Z,8.14
2023-12-09T12:27:40.887Z,8.22
2023-12-09T12:30:09.248Z,8.09
2023-12-09T12:32:39.564Z,8.15
2023-12-09T12:35:07.630Z,8.24
2023-12-09T12:37:34.874Z,8.13
2023-12-09T12:40:02.947Z,8.17
2023-12-09T12:42:31.100Z,8.26
2023-12-09T12:44:59.444Z,8.29
2023-12-09T12:47:26.538Z,8.16
2023-12-09T12:49:53.809Z,8.25
2023-12-09T12:52:20.694Z,8.33
2023-12-09T12:54:48.178Z,8.23
2023-12-09T12:57:15.077Z,8.19
2023-12-09T12:59:41.935Z,8.20
2023-12-09T13:02:09.363Z,8.27
2023-12-09T13:04:36.437Z,8.39
2023-12-09T13:07:03.765Z,8.38
2023-12-09T13:09:30.724Z,8.25
2023-12-09T13:11:57.740Z,8.22
2023-12-09T13:14:24.615Z,8.15
2023-12-09T13:16:51.634Z,8.20
2023-12-09T13:19:19.400Z,8.30
2023-12-09T13:21:47.592Z,8.39
2023-12-09T13:24:14.632Z,8.43
2023-12-09T13:26:41.603Z,8.22
2023-12-09T13:29:08.574Z,8.38
2023-12-09T13:31:36.261Z,8.40
2023-12-09T13:34:06.280Z,8.43
2023-12-09T13:36:35.175Z,8.47
2023-12-09T13:39:02.416Z,8.47
2023-12-09T13:41:31.336Z,8.50
2023-12-09T13:43:58.591Z,8.46
2023-12-09T13:46:26.754Z,8.46
2023-12-09T13:48:53.705Z,8.49
2023-12-09T13:51:20.815Z,8.46
2023-12-09T13:53:47.816Z,8.45
2023-12-09T13:56:14.804Z,8.35
2023-12-09T13:58:41.750Z,8.41
2023-12-09T14:01:08.815Z,8.32
2023-12-09T14:03:35.808Z,8.29
2023-12-09T14:06:02.949Z,8.24
2023-12-09T14:08:31.838Z,8.23
2023-12-09T14:10:59.857Z,8.32
2023-12-09T14:13:26.878Z,8.28
2023-12-09T14:15:54.208Z,8.22
2023-12-09T14:18:21.352Z,8.19
2023-12-09T14:20:48.280Z,8.30
2023-12-09T14:23:15.261Z,8.31
2023-12-09T14:25:43.228Z,8.25
2023-12-09T14:28:10.672Z,8.27
2023-12-09T14:30:37.528Z,8.20
2023-12-09T14:33:04.557Z,8.22
2023-12-09T14:35:32.537Z,8.26
2023-12-09T14:37:59.523Z,8.33
2023-12-09T14:40:26.366Z,8.26
2023-12-09T14:42:53.166Z,8.27
2023-12-09T14:45:20.021Z,8.33
2023-12-09T14:47:54.318Z,8.28
2023-12-09T14:50:28.536Z,8.23
2023-12-09T14:52:55.559Z,8.25
2023-12-09T14:55:22.474Z,8.23
2023-12-09T14:57:49.502Z,8.22
2023-12-09T15:00:17.104Z,8.19
2023-12-09T15:02:43.987Z,8.22
2023-12-09T15:05:11.639Z,8.28
2023-12-09T15:07:38.771Z,8.25
2023-12-09T15:10:06.824Z,8.22
2023-12-09T15:12:34.557Z,8.19
2023-12-09T15:15:03.735Z,8.24
2023-12-09T15:17:33.097Z,8.23
2023-12-09T15:20:01.413Z,8.20
2023-12-09T15:22:28.667Z,8.17
2023-12-09T15:24:55.709Z,8.16
2023-12-09T15:27:22.694Z,8.20
2023-12-09T15:29:49.580Z,8.20
2023-12-09T15:32:16.438Z,8.17
2023-12-09T15:34:43.339Z,8.10
2023-12-09T15:37:10.247Z,8.22
2023-12-09T15:39:40.390Z,8.21
2023-12-09T15:42:07.851Z,8.20
2023-12-09T15:44:34.953Z,8.19
2023-12-09T15:47:01.820Z,8.19
2023-12-09T15:49:28.914Z,8.26
2023-12-09T15:51:55.956Z,8.23
2023-12-09T15:54:24.025Z,8.23
2023-12-09T15:56:50.971Z,8.20
2023-12-09T15:59:17.792Z,8.20
2023-12-09T16:01:44.747Z,8.23
2023-12-09T16:04:11.741Z,8.32
2023-12-09T16:06:39.881Z,8.31
2023-12-09T16:09:06.784Z,8.25
2023-12-09T16:11:34.854Z,8.25
2023-12-09T16:14:01.925Z,8.21
2023-12-09T16:16:29.161Z,8.20
2023-12-09T16:18:56.166Z,8.24
2023-12-09T16:21:23.375Z,8.12
2023-12-09T16:23:51.651Z,8.23
2023-12-09T16:26:18.544Z,8.22
2023-12-09T16:28:46.688Z,8.22
2023-12-09T16:31:16.513Z,8.21
2023-12-09T16:33:43.636Z,8.23
2023-12-09T16:36:11.019Z,8.13
2023-12-09T16:38:37.932Z,8.21
2023-12-09T16:41:05.125Z,8.24
2023-12-09T16:43:31.980Z,8.20
2023-12-09T16:45:58.982Z,8.18
2023-12-09T16:48:26.399Z,8.19
2023-12-09T16:50:53.307Z,8.17
2023-12-09T16:53:20.514Z,8.22
2023-12-09T16:55:47.393Z,8.23
2023-12-09T16:58:14.338Z,8.24
2023-12-09T17:00:41.273Z,8.27
2023-12-09T17:03:08.600Z,8.24
2023-12-09T17:05:35.604Z,8.24
2023-12-09T17:08:02.517Z,8.24
2023-12-09T17:10:29.410Z,8.23
2023-12-09T17:12:56.407Z,8.24
2023-12-09T17:15:25.485Z,8.33
2023-12-09T17:17:52.366Z,8.36
2023-12-09T17:20:19.321Z,8.38
2023-12-09T17:22:49.338Z,8.26
2023-12-09T17:25:18.212Z,8.31
2023-12-09T17:27:45.285Z,8.26
2023-12-09T17:30:16.154Z,8.26
2023-12-09T17:32:43.669Z,8.25
2023-12-09T17:35:10.735Z,8.19
2023-12-09T17:37:37.917Z,8.23
2023-12-09T17:40:07.523Z,8.32
2023-12-09T17:42:34.592Z,8.31
2023-12-09T17:45:01.772Z,8.28
2023-12-09T17:47:28.693Z,8.30
2023-12-09T17:49:55.702Z,8.26
2023-12-09T17:52:25.700Z,8.25
2023-12-09T17:54:52.720Z,8.11
2023-12-09T17:57:19.655Z,8.19
2023-12-09T17:59:46.582Z,8.18
2023-12-09T18:02:13.551Z,8.13
2023-12-09T18:04:40.427Z,8.25
2023-12-09T18:07:07.531Z,8.26
2023-12-09T18:09:34.461Z,8.25
2023-12-09T18:12:01.393Z,8.32
2023-12-09T18:14:28.385Z,8.22
2023-12-09T18:16:56.789Z,8.25
2023-12-09T18:19:23.846Z,8.30
2023-12-09T18:21:51.926Z,8.33
2023-12-09T18:24:20.145Z,8.30
2023-12-09T18:26:47.166Z,8.34
2023-12-09T18:29:14.337Z,8.37
2023-12-09T18:31:44.041Z,8.40
2023-12-09T18:34:11.715Z,8.42
2023-12-09T18:36:38.962Z,8.39
2023-12-09T18:39:06.367Z,8.39
2023-12-09T18:41:33.314Z,8.37
2023-12-09T18:44:00.167Z,8.39
2023-12-09T18:46:27.102Z,8.38
2023-12-09T18:48:55.554Z,8.37
2023-12-09T18:51:22.648Z,8.25
2023-12-09T18:53:49.804Z,8.35
2023-12-09T18:56:16.718Z,8.26
2023-12-09T18:58:43.946Z,8.25
2023-12-09T19:01:11.869Z,8.25
2023-12-09T19:03:40.181Z,8.20
2023-12-09T19:06:09.736Z,8.24
2023-12-09T19:08:38.676Z,8.15
2023-12-09T19:11:06.872Z,8.20
2023-12-09T19:13:34.453Z,8.15
2023-12-09T19:16:01.391Z,8.13
2023-12-09T19:18:28.405Z,8.15
2023-12-09T19:20:55.448Z,8.17
2023-12-09T19:23:22.492Z,8.11
2023-12-09T19:25:49.999Z,8.17
2023-12-09T19:28:17.018Z,8.18
2023-12-09T19:30:43.950Z,8.12
2023-12-09T19:33:11.169Z,8.13
2023-12-09T19:35:38.201Z,8.11
2023-12-09T19:38:05.168Z,8.17
2023-12-09T19:40:32.005Z,8.13
2023-12-09T19:42:59.994Z,8.13
2023-12-09T19:45:27.259Z,8.05
2023-12-09T19:47:57.358Z,8.14
2023-12-09T19:50:25.219Z,8.18
2023-12-09T19:52:52.472Z,8.20
2023-12-09T19:55:19.476Z,8.16
2023-12-09T19:57:46.363Z,8.23
2023-12-09T20:00:16.101Z,8.28
2023-12-09T20:02:45.435Z,8.21
2023-12-09T20:05:12.660Z,8.21
2023-12-09T20:07:39.598Z,8.25
2023-12-09T20:10:07.227Z,8.11
2023-12-09T20:12:34.155Z,8.25
2023-12-09T20:15:01.030Z,8.26
2023-12-09T20:17:27.989Z,8.33
2023-12-09T20:19:54.876Z,8.33
2023-12-09T20:22:21.834Z,8.37
2023-12-09T20:24:48.734Z,8.35
2023-12-09T20:27:16.102Z,8.34
2023-12-09T20:29:42.943Z,8.35
2023-12-09T20:32:10.163Z,8.38
2023-12-09T20:34:37.092Z,8.43
2023-12-09T20:37:04.066Z,8.45
2023-12-09T20:39:31.067Z,8.51
2023-12-09T20:41:57.991Z,8.55
2023-12-09T20:44:24.859Z,8.55
2023-12-09T20:46:51.843Z,8.61
2023-12-09T20:49:18.972Z,8.61
2023-12-09T20:51:46.089Z,8.63
2023-12-09T20:54:14.483Z,8.60
2023-12-09T20:56:41.431Z,8.65
2023-12-09T20:59:09.844Z,8.70
2023-12-09T21:01:46.545Z,8.69
2023-12-09T21:04:14.939Z,8.72
2023-12-09T21:06:41.944Z,8.68
2023-12-09T21:09:10.614Z,8.72
2023-12-09T21:11:38.964Z,8.71
2023-12-09T21:14:07.622Z,8.58
2023-12-09T21:16:38.947Z,8.61
2023-12-09T21:19:06.520Z,8.67
2023-12-09T21:21:34.574Z,8.59
2023-12-09T21:24:01.610Z,8.66
2023-12-09T21:26:28.443Z,8.70
2023-12-09T21:28:55.313Z,8.69
2023-12-09T21:31:22.204Z,8.61
2023-12-09T21:33:49.264Z,8.73
2023-12-09T21:36:17.520Z,8.75
2023-12-09T21:38:45.091Z,8.74
2023-12-09T21:41:20.518Z,8.75
2023-12-09T21:43:51.332Z,8.73
2023-12-09T21:46:20.961Z,8.73
2023-12-09T21:48:51.627Z,8.72
2023-12-09T21:51:22.148Z,8.76
2023-12-09T21:53:49.888Z,8.73
2023-12-09T21:56:24.615Z,8.77
2023-12-09T21:58:52.745Z,8.80
2023-12-09T22:01:20.837Z,8.88
2023-12-09T22:03:49.909Z,8.84
2023-12-09T22:06:17.030Z,8.87
2023-12-09T22:08:45.037Z,8.87
2023-12-09T22:11:15.027Z,8.89
2023-12-09T22:13:42.094Z,8.88
2023-12-09T22:16:09.379Z,8.75
2023-12-09T22:18:36.529Z,8.98
2023-12-09T22:21:03.892Z,9.01
2023-12-09T22:23:30.806Z,9.00
2023-12-09T22:25:57.772Z,9.08
2023-12-09T22:28:24.679Z,9.01
2023-12-09T22:30:51.568Z,9.02
2023-12-09T22:33:19.145Z,9.04
2023-12-09T22:35:46.067Z,9.04
2023-12-09T22:38:14.123Z,9.04
2023-12-09T22:40:41.277Z,8.99
2023-12-09T22:43:08.274Z,9.08
2023-12-09T22:45:35.483Z,9.13
2023-12-09T22:48:02.820Z,9.24
2023-12-09T22:50:29.837Z,9.20
2023-12-09T22:52:56.688Z,9.22
2023-12-09T22:55:24.147Z,9.24
2023-12-09T22:57:51.070Z,9.21
2023-12-09T23:00:26.981Z,9.25
2023-12-09T23:02:54.047Z,9.24
2023-12-09T23:05:20.864Z,9.24
2023-12-09T23:07:47.693Z,9.19
2023-12-09T23:10:15.496Z,9.15
2023-12-09T23:12:42.883Z,9.36
2023-12-09T23:15:10.708Z,9.30
2023-12-09T23:17:37.750Z,9.35
2023-12-09T23:20:05.435Z,9.42
2023-12-09T23:22:32.289Z,9.46
2023-12-09T23:24:59.111Z,9.51
2023-12-09T23:27:26.235Z,9.66
2023-12-09T23:29:53.045Z,9.74
2023-12-09T23:32:19.881Z,9.70
2023-12-09T23:34:46.782Z,9.68
2023-12-09T23:37:13.735Z,9.69
2023-12-09T23:39:40.576Z,9.73
2023-12-09T23:42:07.743Z,9.73
2023-12-09T23:44:35.232Z,9.67
2023-12-09T23:47:02.140Z,9.75
2023-12-09T23:49:29.170Z,9.69
2023-12-09T23:51:56.246Z,9.74
2023-12-09T23:54:23.946Z,9.63
2023-12-09T23:56:51.006Z,9.65
2023-12-09T23:59:17.836Z,9.65
